sensor_id;sensor_type;location;lat;lon;timestamp;pressure;altitude;pressure_sealevel;temperature;humidity
66945;BME280;53853;51.982;5.928;2023-01-29T00:01:55;102916.56;;;4.63;63.42
66945;BME280;53853;51.982;5.928;2023-01-29T00:04:25;102916.69;;;4.60;63.52
66945;BME280;53853;51.982;5.928;2023-01-29T00:06:55;102915.84;;;4.58;63.71
66945;BME280;53853;51.982;5.928;2023-01-29T00:09:28;102913.16;;;4.60;63.27
66945;BME280;53853;51.982;5.928;2023-01-29T00:11:58;102908.13;;;4.53;63.71
66945;BME280;53853;51.982;5.928;2023-01-29T00:14:28;102914.41;;;4.51;63.85
66945;BME280;53853;51.982;5.928;2023-01-29T00:16:58;102909.06;;;4.52;63.79
66945;BME280;53853;51.982;5.928;2023-01-29T00:19:27;102917.72;;;4.56;63.41
66945;BME280;53853;51.982;5.928;2023-01-29T00:21:57;102913.28;;;4.57;63.42
66945;BME280;53853;51.982;5.928;2023-01-29T00:24:30;102915.84;;;4.58;62.68
66945;BME280;53853;51.982;5.928;2023-01-29T00:27:00;102904.50;;;4.56;63.06
66945;BME280;53853;51.982;5.928;2023-01-29T00:29:30;102909.06;;;4.52;63.21
66945;BME280;53853;51.982;5.928;2023-01-29T00:32:01;102894.28;;;4.47;63.64
66945;BME280;53853;51.982;5.928;2023-01-29T00:34:30;102885.59;;;4.45;63.77
66945;BME280;53853;51.982;5.928;2023-01-29T00:37:00;102888.34;;;4.42;63.88
66945;BME280;53853;51.982;5.928;2023-01-29T00:39:37;102884.09;;;4.38;63.73
66945;BME280;53853;51.982;5.928;2023-01-29T00:42:07;102876.28;;;4.34;64.00
66945;BME280;53853;51.982;5.928;2023-01-29T00:44:49;102873.59;;;4.36;63.79
66945;BME280;53853;51.982;5.928;2023-01-29T00:47:28;102875.25;;;4.39;63.87
66945;BME280;53853;51.982;5.928;2023-01-29T00:50:04;102872.50;;;4.42;63.57
66945;BME280;53853;51.982;5.928;2023-01-29T00:52:34;102863.69;;;4.43;63.44
66945;BME280;53853;51.982;5.928;2023-01-29T00:55:10;102871.66;;;4.41;63.66
66945;BME280;53853;51.982;5.928;2023-01-29T00:57:40;102868.06;;;4.42;63.67
66945;BME280;53853;51.982;5.928;2023-01-29T01:00:12;102874.34;;;4.40;63.94
66945;BME280;53853;51.982;5.928;2023-01-29T01:02:43;102886.50;;;4.44;64.07
66945;BME280;53853;51.982;5.928;2023-01-29T01:05:27;102882.16;;;4.43;63.65
66945;BME280;53853;51.982;5.928;2023-01-29T01:07:58;102883.06;;;4.42;63.32
66945;BME280;53853;51.982;5.928;2023-01-29T01:10:32;102885.66;;;4.43;63.39
66945;BME280;53853;51.982;5.928;2023-01-29T01:13:01;102873.41;;;4.41;63.23
66945;BME280;53853;51.982;5.928;2023-01-29T01:15:34;102889.25;;;4.41;63.24
66945;BME280;53853;51.982;5.928;2023-01-29T01:18:05;102882.63;;;4.30;63.82
66945;BME280;53853;51.982;5.928;2023-01-29T01:20:35;102883.41;;;4.32;63.66
66945;BME280;53853;51.982;5.928;2023-01-29T01:23:05;102881.00;;;4.26;64.01
66945;BME280;53853;51.982;5.928;2023-01-29T01:25:38;102872.00;;;4.32;63.73
66945;BME280;53853;51.982;5.928;2023-01-29T01:28:08;102873.91;;;4.28;63.83
66945;BME280;53853;51.982;5.928;2023-01-29T01:30:39;102866.97;;;4.26;64.27
66945;BME280;53853;51.982;5.928;2023-01-29T01:33:09;102862.53;;;4.26;64.35
66945;BME280;53853;51.982;5.928;2023-01-29T01:35:39;102870.44;;;4.26;64.05
66945;BME280;53853;51.982;5.928;2023-01-29T01:38:09;102859.81;;;4.28;63.69
66945;BME280;53853;51.982;5.928;2023-01-29T01:40:44;102859.81;;;4.28;63.88
66945;BME280;53853;51.982;5.928;2023-01-29T01:43:14;102866.97;;;4.26;63.98
66945;BME280;53853;51.982;5.928;2023-01-29T01:45:44;102867.91;;;4.23;63.98
66945;BME280;53853;51.982;5.928;2023-01-29T01:48:17;102870.44;;;4.26;63.94
66945;BME280;53853;51.982;5.928;2023-01-29T01:50:50;102862.69;;;4.22;64.01
66945;BME280;53853;51.982;5.928;2023-01-29T01:53:27;102869.03;;;4.17;64.32
66945;BME280;53853;51.982;5.928;2023-01-29T01:56:05;102863.75;;;4.17;64.38
66945;BME280;53853;51.982;5.928;2023-01-29T01:58:38;102867.25;;;4.18;64.34
66945;BME280;53853;51.982;5.928;2023-01-29T02:01:11;102875.16;;;4.18;63.77
66945;BME280;53853;51.982;5.928;2023-01-29T02:03:45;102887.69;;;4.13;63.88
66945;BME280;53853;51.982;5.928;2023-01-29T02:06:31;102882.50;;;4.10;63.87
66945;BME280;53853;51.982;5.928;2023-01-29T02:09:18;102887.78;;;4.10;63.73
66945;BME280;53853;51.982;5.928;2023-01-29T02:12:10;102885.47;;;4.01;63.99
66945;BME280;53853;51.982;5.928;2023-01-29T02:14:41;102879.56;;;3.94;64.18
66945;BME280;53853;51.982;5.928;2023-01-29T02:17:14;102879.81;;;3.88;64.82
66945;BME280;53853;51.982;5.928;2023-01-29T02:19:49;102877.06;;;3.91;65.02
66945;BME280;53853;51.982;5.928;2023-01-29T02:25:49;102879.63;;;3.92;65.27
66945;BME280;53853;51.982;5.928;2023-01-29T02:28:38;102882.22;;;3.94;64.75
66945;BME280;53853;51.982;5.928;2023-01-29T02:31:14;102879.63;;;3.92;65.02
66945;BME280;53853;51.982;5.928;2023-01-29T02:33:54;102875.94;;;3.96;64.71
66945;BME280;53853;51.982;5.928;2023-01-29T02:36:34;102871.56;;;3.97;64.82
66945;BME280;53853;51.982;5.928;2023-01-29T02:39:14;102872.28;;;4.01;64.72
66945;BME280;53853;51.982;5.928;2023-01-29T02:41:55;102860.72;;;4.05;64.31
66945;BME280;53853;51.982;5.928;2023-01-29T02:44:35;102861.63;;;4.04;64.12
66945;BME280;53853;51.982;5.928;2023-01-29T02:47:13;102869.53;;;4.04;64.05
66945;BME280;53853;51.982;5.928;2023-01-29T02:49:48;102866.09;;;4.02;64.19
66945;BME280;53853;51.982;5.928;2023-01-29T02:52:24;102875.84;;;3.99;64.05
66945;BME280;53853;51.982;5.928;2023-01-29T02:54:59;102869.88;;;3.94;64.24
66945;BME280;53853;51.982;5.928;2023-01-29T02:57:33;102875.31;;;3.90;64.67
66945;BME280;53853;51.982;5.928;2023-01-29T03:00:10;102877.91;;;3.91;64.35
66945;BME280;53853;51.982;5.928;2023-01-29T03:02:46;102881.47;;;3.90;64.96
66945;BME280;53853;51.982;5.928;2023-01-29T03:05:22;102882.16;;;3.95;64.56
66945;BME280;53853;51.982;5.928;2023-01-29T03:07:59;102883.94;;;3.95;64.49
66945;BME280;53853;51.982;5.928;2023-01-29T03:10:38;102889.97;;;3.98;64.44
66945;BME280;53853;51.982;5.928;2023-01-29T03:13:13;102883.94;;;3.95;64.38
66945;BME280;53853;51.982;5.928;2023-01-29T03:15:51;102886.66;;;3.93;64.38
66945;BME280;53853;51.982;5.928;2023-01-29T03:18:42;102879.63;;;3.92;64.49
66945;BME280;53853;51.982;5.928;2023-01-29T03:21:18;102876.38;;;3.86;65.13
66945;BME280;53853;51.982;5.928;2023-01-29T03:24:04;102869.25;;;3.88;65.08
66945;BME280;53853;51.982;5.928;2023-01-29T03:26:48;102856.06;;;3.88;65.03
66945;BME280;53853;51.982;5.928;2023-01-29T03:29:36;102853.47;;;3.86;65.03
66945;BME280;53853;51.982;5.928;2023-01-29T03:32:24;102844.66;;;3.87;64.92
66945;BME280;53853;51.982;5.928;2023-01-29T03:35:02;102853.31;;;3.91;65.15
66945;BME280;53853;51.982;5.928;2023-01-29T03:37:36;102842.66;;;3.94;64.70
66945;BME280;53853;51.982;5.928;2023-01-29T03:40:09;102840.28;;;3.86;65.03
66945;BME280;53853;51.982;5.928;2023-01-29T03:42:52;102830.47;;;3.90;64.82
66945;BME280;53853;51.982;5.928;2023-01-29T03:45:30;102820.22;;;3.82;65.29
66945;BME280;53853;51.982;5.928;2023-01-29T03:48:10;102824.41;;;3.88;65.13
66945;BME280;53853;51.982;5.928;2023-01-29T03:50:51;102825.25;;;3.88;65.12
66945;BME280;53853;51.982;5.928;2023-01-29T03:53:27;102816.44;;;3.89;65.07
66945;BME280;53853;51.982;5.928;2023-01-29T03:56:01;102821.53;;;3.94;64.76
66945;BME280;53853;51.982;5.928;2023-01-29T03:58:34;102817.19;;;3.93;65.02
66945;BME280;53853;51.982;5.928;2023-01-29T04:01:13;102819.03;;;3.91;65.28
66945;BME280;53853;51.982;5.928;2023-01-29T04:03:48;102819.88;;;3.91;65.54
66945;BME280;53853;51.982;5.928;2023-01-29T04:06:23;102810.94;;;3.95;65.28
66945;BME280;53853;51.982;5.928;2023-01-29T04:09:09;102818.63;;;4.02;64.88
66945;BME280;53853;51.982;5.928;2023-01-29T04:11:46;102826.41;;;4.05;64.80
66945;BME280;53853;51.982;5.928;2023-01-29T04:14:19;102829.28;;;3.98;65.35
66945;BME280;53853;51.982;5.928;2023-01-29T04:16:53;102825.72;;;3.99;65.06
66945;BME280;53853;51.982;5.928;2023-01-29T04:19:34;102812.53;;;3.99;65.14
66945;BME280;53853;51.982;5.928;2023-01-29T04:22:09;102801.97;;;3.99;65.37
66945;BME280;53853;51.982;5.928;2023-01-29T04:24:41;102802.91;;;3.98;65.05
66945;BME280;53853;51.982;5.928;2023-01-29T04:27:25;102797.56;;;4.00;65.01
66945;BME280;53853;51.982;5.928;2023-01-29T04:30:06;102786.03;;;4.03;65.04
66945;BME280;53853;51.982;5.928;2023-01-29T04:32:55;102779.78;;;4.05;64.85
66945;BME280;53853;51.982;5.928;2023-01-29T04:35:34;102780.56;;;4.07;64.63
66945;BME280;53853;51.982;5.928;2023-01-29T04:38:15;102779.84;;;4.04;64.80
66945;BME280;53853;51.982;5.928;2023-01-29T04:40:53;102790.28;;;4.07;64.74
66945;BME280;53853;51.982;5.928;2023-01-29T04:43:32;102785.78;;;4.09;64.70
66945;BME280;53853;51.982;5.928;2023-01-29T04:46:12;102793.59;;;4.12;64.29
66945;BME280;53853;51.982;5.928;2023-01-29T04:48:56;102790.94;;;4.12;64.07
66945;BME280;53853;51.982;5.928;2023-01-29T04:51:42;102788.44;;;4.09;64.11
66945;BME280;53853;51.982;5.928;2023-01-29T04:54:20;102776.34;;;4.03;64.33
66945;BME280;53853;51.982;5.928;2023-01-29T04:57:00;102779.78;;;4.05;64.39
66945;BME280;53853;51.982;5.928;2023-01-29T04:59:38;102774.44;;;4.07;64.28
66945;BME280;53853;51.982;5.928;2023-01-29T05:02:14;102770.19;;;4.03;64.49
66945;BME280;53853;51.982;5.928;2023-01-29T05:04:45;102770.44;;;3.96;64.71
66945;BME280;53853;51.982;5.928;2023-01-29T05:07:19;102769.63;;;3.94;64.48
66945;BME280;53853;51.982;5.928;2023-01-29T05:09:50;102758.13;;;3.97;64.48
66945;BME280;53853;51.982;5.928;2023-01-29T05:12:21;102769.69;;;3.93;64.89
66945;BME280;53853;51.982;5.928;2023-01-29T05:14:54;102769.69;;;3.93;64.68
66945;BME280;53853;51.982;5.928;2023-01-29T05:17:27;102764.34;;;3.94;64.45
66945;BME280;53853;51.982;5.928;2023-01-29T05:19:57;102761.72;;;3.94;64.63
66945;BME280;53853;51.982;5.928;2023-01-29T05:22:30;102753.81;;;3.94;64.84
66945;BME280;53853;51.982;5.928;2023-01-29T05:25:00;102753.69;;;3.97;64.90
66945;BME280;53853;51.982;5.928;2023-01-29T05:27:33;102760.69;;;3.98;64.85
66945;BME280;53853;51.982;5.928;2023-01-29T05:30:16;102767.69;;;3.99;64.71
66945;BME280;53853;51.982;5.928;2023-01-29T05:32:46;102763.41;;;3.97;65.09
66945;BME280;53853;51.982;5.928;2023-01-29T05:35:16;102759.88;;;3.96;65.25
66945;BME280;53853;51.982;5.928;2023-01-29T05:37:48;102762.41;;;3.99;64.92
66945;BME280;53853;51.982;5.928;2023-01-29T05:40:18;102776.53;;;3.98;65.21
66945;BME280;53853;51.982;5.928;2023-01-29T05:42:48;102773.06;;;3.96;65.27
66945;BME280;53853;51.982;5.928;2023-01-29T05:45:19;102786.13;;;3.99;64.79
66945;BME280;53853;51.982;5.928;2023-01-29T05:47:49;102778.34;;;3.96;64.99
66945;BME280;53853;51.982;5.928;2023-01-29T05:50:18;102782.81;;;3.94;65.58
66945;BME280;53853;51.982;5.928;2023-01-29T05:52:55;102789.78;;;3.97;65.41
66945;BME280;53853;51.982;5.928;2023-01-29T05:55:26;102790.63;;;3.97;65.55
66945;BME280;53853;51.982;5.928;2023-01-29T05:57:56;102784.50;;;3.97;65.89
66945;BME280;53853;51.982;5.928;2023-01-29T06:00:26;102786.09;;;4.01;65.78
66945;BME280;53853;51.982;5.928;2023-01-29T06:02:57;102785.91;;;4.06;65.69
66945;BME280;53853;51.982;5.928;2023-01-29T06:05:27;102776.13;;;4.09;65.21
66945;BME280;53853;51.982;5.928;2023-01-29T06:08:00;102761.97;;;4.10;65.27
66945;BME280;53853;51.982;5.928;2023-01-29T06:10:29;102753.88;;;4.15;65.04
66945;BME280;53853;51.982;5.928;2023-01-29T06:12:59;102759.16;;;4.15;65.01
66945;BME280;53853;51.982;5.928;2023-01-29T06:15:29;102755.75;;;4.13;65.19
66945;BME280;53853;51.982;5.928;2023-01-29T06:17:59;102764.38;;;4.16;64.95
66945;BME280;53853;51.982;5.928;2023-01-29T06:20:29;102758.25;;;4.16;64.96
66945;BME280;53853;51.982;5.928;2023-01-29T06:23:01;102756.34;;;4.20;64.61
66945;BME280;53853;51.982;5.928;2023-01-29T06:25:31;102751.84;;;4.22;64.53
66945;BME280;53853;51.982;5.928;2023-01-29T06:28:01;102749.16;;;4.23;64.73
66945;BME280;53853;51.982;5.928;2023-01-29T06:30:31;102742.97;;;4.24;64.60
66945;BME280;53853;51.982;5.928;2023-01-29T06:33:01;102736.72;;;4.27;64.38
66945;BME280;53853;51.982;5.928;2023-01-29T06:35:31;102741.00;;;4.29;64.25
66945;BME280;53853;51.982;5.928;2023-01-29T06:38:04;102741.81;;;4.31;64.22
66945;BME280;53853;51.982;5.928;2023-01-29T06:40:33;102725.03;;;4.32;64.36
66945;BME280;53853;51.982;5.928;2023-01-29T06:43:03;102732.97;;;4.32;64.03
66945;BME280;53853;51.982;5.928;2023-01-29T06:45:33;102736.72;;;4.27;64.22
66945;BME280;53853;51.982;5.928;2023-01-29T06:48:03;102749.09;;;4.25;64.72
66945;BME280;53853;51.982;5.928;2023-01-29T06:50:33;102747.28;;;4.27;64.71
66945;BME280;53853;51.982;5.928;2023-01-29T06:53:06;102749.75;;;4.31;64.42
66945;BME280;53853;51.982;5.928;2023-01-29T06:55:36;102744.38;;;4.33;64.67
66945;BME280;53853;51.982;5.928;2023-01-29T06:58:06;102751.31;;;4.35;64.60
66945;BME280;53853;51.982;5.928;2023-01-29T07:00:37;102752.91;;;4.40;64.20
66945;BME280;53853;51.982;5.928;2023-01-29T07:03:09;102752.91;;;4.40;64.18
66945;BME280;53853;51.982;5.928;2023-01-29T07:05:39;102742.41;;;4.38;64.27
66945;BME280;53853;51.982;5.928;2023-01-29T07:08:12;102738.66;;;4.44;63.95
66945;BME280;53853;51.982;5.928;2023-01-29T07:10:41;102737.81;;;4.43;64.04
66945;BME280;53853;51.982;5.928;2023-01-29T07:13:11;102742.13;;;4.46;63.79
66945;BME280;53853;51.982;5.928;2023-01-29T07:15:41;102735.88;;;4.47;63.66
66945;BME280;53853;51.982;5.928;2023-01-29T07:18:12;102735.88;;;4.47;63.54
66945;BME280;53853;51.982;5.928;2023-01-29T07:20:42;102745.47;;;4.49;63.82
66945;BME280;53853;51.982;5.928;2023-01-29T07:23:15;102734.72;;;4.54;63.52
66945;BME280;53853;51.982;5.928;2023-01-29T07:25:45;102733.00;;;4.53;63.44
66945;BME280;53853;51.982;5.928;2023-01-29T07:28:15;102732.88;;;4.56;63.33
66945;BME280;53853;51.982;5.928;2023-01-29T07:30:46;102738.22;;;4.54;63.52
66945;BME280;53853;51.982;5.928;2023-01-29T07:33:16;102738.34;;;4.51;63.86
66945;BME280;53853;51.982;5.928;2023-01-29T07:35:46;102742.00;;;4.49;64.08
66945;BME280;53853;51.982;5.928;2023-01-29T07:38:19;102735.56;;;4.54;64.06
66945;BME280;53853;51.982;5.928;2023-01-29T07:40:50;102743.38;;;4.58;63.74
66945;BME280;53853;51.982;5.928;2023-01-29T07:43:20;102761.84;;;4.58;64.07
66945;BME280;53853;51.982;5.928;2023-01-29T07:45:50;102749.50;;;4.58;63.71
66945;BME280;53853;51.982;5.928;2023-01-29T07:48:20;102741.56;;;4.58;63.85
66945;BME280;53853;51.982;5.928;2023-01-29T07:50:54;102743.31;;;4.59;63.71
66945;BME280;53853;51.982;5.928;2023-01-29T07:53:27;102743.31;;;4.59;63.81
66945;BME280;53853;51.982;5.928;2023-01-29T07:55:57;102737.00;;;4.63;63.69
66945;BME280;53853;51.982;5.928;2023-01-29T07:58:27;102723.38;;;4.72;63.16
66945;BME280;53853;51.982;5.928;2023-01-29T08:00:57;102718.97;;;4.73;63.17
66945;BME280;53853;51.982;5.928;2023-01-29T08:03:27;102707.25;;;4.79;62.98
66945;BME280;53853;51.982;5.928;2023-01-29T08:05:57;102695.78;;;4.80;62.88
66945;BME280;53853;51.982;5.928;2023-01-29T08:08:30;102692.94;;;4.84;62.54
66945;BME280;53853;51.982;5.928;2023-01-29T08:11:00;102686.75;;;4.85;62.51
66945;BME280;53853;51.982;5.928;2023-01-29T08:13:31;102684.81;;;4.89;62.20
66945;BME280;53853;51.982;5.928;2023-01-29T08:16:02;102692.03;;;4.85;62.60
66945;BME280;53853;51.982;5.928;2023-01-29T08:18:32;102708.53;;;4.90;62.38
66945;BME280;53853;51.982;5.928;2023-01-29T08:21:03;102704.09;;;4.91;62.34
66945;BME280;53853;51.982;5.928;2023-01-29T08:23:35;102691.66;;;4.93;62.01
66945;BME280;53853;51.982;5.928;2023-01-29T08:26:05;102691.72;;;4.92;62.15
66945;BME280;53853;51.982;5.928;2023-01-29T08:28:35;102693.47;;;4.93;62.56
66945;BME280;53853;51.982;5.928;2023-01-29T08:31:13;102690.63;;;4.97;61.76
66945;BME280;53853;51.982;5.928;2023-01-29T08:33:42;102689.72;;;4.98;62.40
66945;BME280;53853;51.982;5.928;2023-01-29T08:36:12;102689.50;;;5.03;62.61
66945;BME280;53853;51.982;5.928;2023-01-29T08:38:45;102676.94;;;5.08;61.90
66945;BME280;53853;51.982;5.928;2023-01-29T08:41:15;102672.63;;;5.05;62.25
66945;BME280;53853;51.982;5.928;2023-01-29T08:43:45;102675.00;;;5.12;61.88
66945;BME280;53853;51.982;5.928;2023-01-29T08:46:15;102665.06;;;5.17;61.86
66945;BME280;53853;51.982;5.928;2023-01-29T08:48:45;102655.19;;;5.22;61.81
66945;BME280;53853;51.982;5.928;2023-01-29T08:51:14;102658.47;;;5.27;61.63
66945;BME280;53853;51.982;5.928;2023-01-29T08:53:47;102650.25;;;5.33;61.18
66945;BME280;53853;51.982;5.928;2023-01-29T08:56:17;102645.75;;;5.35;60.82
66945;BME280;53853;51.982;5.928;2023-01-29T08:58:47;102652.69;;;5.38;60.79
66945;BME280;53853;51.982;5.928;2023-01-29T09:01:17;102655.25;;;5.39;60.34
66945;BME280;53853;51.982;5.928;2023-01-29T09:03:47;102653.47;;;5.40;60.39
66945;BME280;53853;51.982;5.928;2023-01-29T09:06:18;102659.47;;;5.43;60.70
66945;BME280;53853;51.982;5.928;2023-01-29T09:08:51;102664.59;;;5.47;60.42
66945;BME280;53853;51.982;5.928;2023-01-29T09:11:21;102656.53;;;5.50;60.62
66945;BME280;53853;51.982;5.928;2023-01-29T09:13:51;102657.16;;;5.55;60.50
66945;BME280;53853;51.982;5.928;2023-01-29T09:16:21;102657.97;;;5.57;60.40
66945;BME280;53853;51.982;5.928;2023-01-29T09:18:52;102671.97;;;5.59;60.01
66945;BME280;53853;51.982;5.928;2023-01-29T09:21:22;102661.47;;;5.57;60.14
66945;BME280;53853;51.982;5.928;2023-01-29T09:23:55;102666.69;;;5.59;60.46
66945;BME280;53853;51.982;5.928;2023-01-29T09:26:24;102660.16;;;5.66;59.87
66945;BME280;53853;51.982;5.928;2023-01-29T09:28:55;102654.72;;;5.69;59.23
66945;BME280;53853;51.982;5.928;2023-01-29T09:31:25;102654.78;;;5.68;59.35
66945;BME280;53853;51.982;5.928;2023-01-29T09:33:54;102664.03;;;5.59;59.35
66945;BME280;53853;51.982;5.928;2023-01-29T09:36:24;102661.25;;;5.62;59.46
66945;BME280;53853;51.982;5.928;2023-01-29T09:38:57;102660.22;;;5.65;59.60
66945;BME280;53853;51.982;5.928;2023-01-29T09:41:37;102653.94;;;5.67;59.39
66945;BME280;53853;51.982;5.928;2023-01-29T09:44:15;102654.78;;;5.68;59.83
66945;BME280;53853;51.982;5.928;2023-01-29T09:46:48;102660.75;;;5.73;59.89
66945;BME280;53853;51.982;5.928;2023-01-29T09:49:23;102666.81;;;5.75;59.26
66945;BME280;53853;51.982;5.928;2023-01-29T09:51:59;102664.16;;;5.75;59.33
66945;BME280;53853;51.982;5.928;2023-01-29T09:54:39;102661.59;;;5.73;59.17
66945;BME280;53853;51.982;5.928;2023-01-29T09:57:16;102657.44;;;5.68;59.28
66945;BME280;53853;51.982;5.928;2023-01-29T09:59:47;102660.81;;;5.71;60.06
66945;BME280;53853;51.982;5.928;2023-01-29T10:02:37;102654.34;;;5.77;59.31
66945;BME280;53853;51.982;5.928;2023-01-29T10:05:24;102656.44;;;5.70;59.46
66945;BME280;53853;51.982;5.928;2023-01-29T10:08:23;102651.09;;;5.72;59.23
66945;BME280;53853;51.982;5.928;2023-01-29T10:11:03;102648.78;;;5.64;60.06
66945;BME280;53853;51.982;5.928;2023-01-29T10:13:41;102642.44;;;5.68;60.05
66945;BME280;53853;51.982;5.928;2023-01-29T10:16:22;102647.66;;;5.70;60.04
66945;BME280;53853;51.982;5.928;2023-01-29T10:19:15;102651.28;;;5.67;59.92
66945;BME280;53853;51.982;5.928;2023-01-29T10:22:13;102650.88;;;5.76;59.92
66945;BME280;53853;51.982;5.928;2023-01-29T10:24:52;102651.63;;;5.78;59.08
66945;BME280;53853;51.982;5.928;2023-01-29T10:27:32;102650.38;;;5.68;59.27
66945;BME280;53853;51.982;5.928;2023-01-29T10:30:08;102642.38;;;5.70;59.10
66945;BME280;53853;51.982;5.928;2023-01-29T10:32:40;102643.06;;;5.73;59.09
66945;BME280;53853;51.982;5.928;2023-01-29T10:35:19;102636.06;;;5.72;59.19
66945;BME280;53853;51.982;5.928;2023-01-29T10:37:52;102640.34;;;5.75;59.36
66945;BME280;53853;51.982;5.928;2023-01-29T10:40:26;102640.06;;;5.81;58.85
66945;BME280;53853;51.982;5.928;2023-01-29T10:43:05;102638.03;;;5.86;58.64
66945;BME280;53853;51.982;5.928;2023-01-29T10:45:44;102628.22;;;5.88;58.42
66945;BME280;53853;51.982;5.928;2023-01-29T10:48:37;102630.25;;;5.83;58.22
66945;BME280;53853;51.982;5.928;2023-01-29T10:51:21;102618.19;;;5.77;58.29
66945;BME280;53853;51.982;5.928;2023-01-29T10:54:05;102612.47;;;5.68;58.28
66945;BME280;53853;51.982;5.928;2023-01-29T10:56:50;102609.41;;;5.58;59.19
66945;BME280;53853;51.982;5.928;2023-01-29T10:59:46;102601.56;;;5.56;59.05
66945;BME280;53853;51.982;5.928;2023-01-29T11:02:20;102603.75;;;5.66;58.70
66945;BME280;53853;51.982;5.928;2023-01-29T11:04:50;102596.66;;;5.66;58.46
66945;BME280;53853;51.982;5.928;2023-01-29T11:07:21;102590.91;;;5.58;59.01
66945;BME280;53853;51.982;5.928;2023-01-29T11:09:56;102588.25;;;5.58;59.36
66945;BME280;53853;51.982;5.928;2023-01-29T11:12:31;102580.97;;;5.63;59.25
66945;BME280;53853;51.982;5.928;2023-01-29T11:15:11;102581.59;;;5.68;58.85
66945;BME280;53853;51.982;5.928;2023-01-29T11:18:01;102570.94;;;5.70;58.75
66945;BME280;53853;51.982;5.928;2023-01-29T11:20:32;102560.91;;;5.76;58.43
66945;BME280;53853;51.982;5.928;2023-01-29T11:23:02;102556.41;;;5.78;58.67
66945;BME280;53853;51.982;5.928;2023-01-29T11:25:32;102559.50;;;5.69;58.97
66945;BME280;53853;51.982;5.928;2023-01-29T11:28:03;102547.53;;;5.79;58.56
66945;BME280;53853;51.982;5.928;2023-01-29T11:30:38;102546.22;;;5.88;58.09
66945;BME280;53853;51.982;5.928;2023-01-29T11:33:19;102535.47;;;5.91;57.89
66945;BME280;53853;51.982;5.928;2023-01-29T11:35:50;102526.47;;;5.95;57.97
66945;BME280;53853;51.982;5.928;2023-01-29T11:38:23;102522.84;;;5.98;58.02
66945;BME280;53853;51.982;5.928;2023-01-29T11:41:04;102530.78;;;5.98;57.96
66945;BME280;53853;51.982;5.928;2023-01-29T11:43:34;102527.28;;;5.96;58.04
66945;BME280;53853;51.982;5.928;2023-01-29T11:46:14;102520.88;;;6.02;57.84
66945;BME280;53853;51.982;5.928;2023-01-29T11:48:46;102516.03;;;6.10;58.03
66945;BME280;53853;51.982;5.928;2023-01-29T11:51:22;102510.34;;;6.18;57.95
66945;BME280;53853;51.982;5.928;2023-01-29T11:53:53;102505.91;;;6.18;57.26
66945;BME280;53853;51.982;5.928;2023-01-29T11:56:28;102507.94;;;6.13;57.64
66945;BME280;53853;51.982;5.928;2023-01-29T11:59:00;102501.25;;;6.06;57.78
66945;BME280;53853;51.982;5.928;2023-01-29T12:01:36;102497.34;;;6.13;58.01
66945;BME280;53853;51.982;5.928;2023-01-29T12:04:17;102492.06;;;6.13;57.62
66945;BME280;53853;51.982;5.928;2023-01-29T12:06:50;102491.06;;;6.15;58.03
66945;BME280;53853;51.982;5.928;2023-01-29T12:09:24;102483.03;;;6.17;58.03
66945;BME280;53853;51.982;5.928;2023-01-29T12:11:55;102486.53;;;6.18;58.48
66945;BME280;53853;51.982;5.928;2023-01-29T12:14:44;102473.75;;;6.26;58.06
66945;BME280;53853;51.982;5.928;2023-01-29T12:17:19;102475.31;;;6.30;57.67
66945;BME280;53853;51.982;5.928;2023-01-29T12:19:55;102472.97;;;6.24;58.22
66945;BME280;53853;51.982;5.928;2023-01-29T12:22:37;102467.34;;;6.30;58.11
66945;BME280;53853;51.982;5.928;2023-01-29T12:25:20;102454.63;;;6.37;58.09
66945;BME280;53853;51.982;5.928;2023-01-29T12:27:55;102457.88;;;6.42;58.09
66945;BME280;53853;51.982;5.928;2023-01-29T12:30:33;102448.81;;;6.30;58.38
66945;BME280;53853;51.982;5.928;2023-01-29T12:33:13;102447.88;;;6.31;58.45
66945;BME280;53853;51.982;5.928;2023-01-29T12:35:47;102444.28;;;6.32;58.50
66945;BME280;53853;51.982;5.928;2023-01-29T12:38:21;102439.50;;;6.39;58.18
66945;BME280;53853;51.982;5.928;2023-01-29T12:40:54;102432.78;;;6.33;58.08
66945;BME280;53853;51.982;5.928;2023-01-29T12:43:31;102430.97;;;6.33;58.31
66945;BME280;53853;51.982;5.928;2023-01-29T12:46:08;102428.25;;;6.35;58.07
66945;BME280;53853;51.982;5.928;2023-01-29T12:48:46;102415.84;;;6.35;58.13
66945;BME280;53853;51.982;5.928;2023-01-29T12:51:21;102417.66;;;6.35;58.45
66945;BME280;53853;51.982;5.928;2023-01-29T12:53:56;102407.66;;;6.40;58.42
66945;BME280;53853;51.982;5.928;2023-01-29T12:56:30;102408.78;;;6.36;58.45
66945;BME280;53853;51.982;5.928;2023-01-29T12:59:09;102402.28;;;6.42;58.66
66945;BME280;53853;51.982;5.928;2023-01-29T13:01:45;102390.69;;;6.44;58.82
66945;BME280;53853;51.982;5.928;2023-01-29T13:04:29;102389.47;;;6.50;58.74
66945;BME280;53853;51.982;5.928;2023-01-29T13:07:08;102382.66;;;6.46;58.79
66945;BME280;53853;51.982;5.928;2023-01-29T13:09:42;102378.78;;;6.51;58.96
66945;BME280;53853;51.982;5.928;2023-01-29T13:12:16;102375.13;;;6.54;58.95
66945;BME280;53853;51.982;5.928;2023-01-29T13:14:50;102373.91;;;6.60;58.98
66945;BME280;53853;51.982;5.928;2023-01-29T13:17:25;102363.13;;;6.63;58.64
66945;BME280;53853;51.982;5.928;2023-01-29T13:20:02;102361.13;;;6.52;58.74
66945;BME280;53853;51.982;5.928;2023-01-29T13:22:36;102353.44;;;6.47;59.23
66945;BME280;53853;51.982;5.928;2023-01-29T13:25:13;102348.06;;;6.33;59.71
66945;BME280;53853;51.982;5.928;2023-01-29T13:27:45;102350.34;;;6.39;59.54
66945;BME280;53853;51.982;5.928;2023-01-29T13:30:26;102346.25;;;6.33;59.87
66945;BME280;53853;51.982;5.928;2023-01-29T13:32:58;102330.88;;;6.40;59.65
66945;BME280;53853;51.982;5.928;2023-01-29T13:35:40;102327.72;;;6.33;59.90
66945;BME280;53853;51.982;5.928;2023-01-29T13:38:22;102328.97;;;6.26;59.98
66945;BME280;53853;51.982;5.928;2023-01-29T13:40:57;102321.91;;;6.27;60.22
66945;BME280;53853;51.982;5.928;2023-01-29T13:43:34;102318.13;;;6.31;59.98